Time;durP1;ratioP1;P1;durP2;ratioP2;P2;SDS_P1;SDS_P2;PMS_P1;PMS_P2;Temp;Humidity;BMP_temperature;BMP_pressure;BME280_temperature;BME280_humidity;BME280_pressure;Samples;Min_cycle;Max_cycle;Signal;HPM_P1;HPM_P2
2022/12/08 00:01:08;;;;;;;10.07;5.57;;;-3.20;99.90;;;;;;4994671;28;20046;-70
2022/12/08 00:03:37;;;;;;;10.98;5.50;;;-3.10;99.90;;;;;;5000348;28;20053;-76
2022/12/08 00:11:38;;;;;;;11.57;5.82;;;-3.20;99.90;;;;;;4990801;28;20043;-77
2022/12/08 00:14:06;;;;;;;12.60;5.80;;;-3.20;99.90;;;;;;4975779;28;20047;-77
2022/12/08 00:16:33;;;;;;;8.52;5.40;;;-3.20;99.90;;;;;;4982891;28;20057;-77
2022/12/08 00:19:01;;;;;;;11.07;5.93;;;-3.20;99.90;;;;;;5009716;28;20450;-77
2022/12/08 00:21:30;;;;;;;9.63;5.47;;;-3.20;99.90;;;;;;4994808;28;20054;-77
2022/12/08 00:23:58;;;;;;;8.88;5.72;;;-3.10;99.90;;;;;;4993205;28;20506;-77
2022/12/08 00:26:25;;;;;;;10.02;5.43;;;-3.10;99.90;;;;;;4978870;28;20053;-76
2022/12/08 00:28:52;;;;;;;12.13;6.07;;;-3.10;99.90;;;;;;4975064;28;20531;-77
2022/12/08 00:31:20;;;;;;;10.48;6.18;;;-3.10;99.90;;;;;;4974962;28;20046;-77
2022/12/08 00:33:47;;;;;;;11.07;6.28;;;-3.10;99.90;;;;;;4973265;28;20054;-77
2022/12/08 00:36:15;;;;;;;12.93;5.88;;;-3.00;99.90;;;;;;4974983;28;20445;-77
2022/12/08 00:38:46;;;;;;;8.68;5.65;;;-3.00;99.90;;;;;;4973602;28;20050;-77
2022/12/08 00:41:16;;;;;;;11.98;6.72;;;-3.10;99.90;;;;;;4974666;28;20145;-76
2022/12/08 00:43:44;;;;;;;10.60;5.72;;;-3.10;99.90;;;;;;4978731;28;20145;-77
2022/12/08 00:46:12;;;;;;;9.48;6.07;;;-3.00;99.90;;;;;;4990108;28;20097;-77
2022/12/08 00:48:39;;;;;;;11.45;6.20;;;-3.00;99.90;;;;;;4974570;28;20055;-77
2022/12/08 00:51:07;;;;;;;9.68;5.22;;;-3.10;99.90;;;;;;4974601;28;20075;-76
2022/12/08 00:53:34;;;;;;;11.50;5.93;;;-3.10;99.90;;;;;;4974066;28;20066;-77
2022/12/08 00:56:03;;;;;;;9.95;5.55;;;-3.00;99.90;;;;;;4974397;28;20047;-77
2022/12/08 00:58:31;;;;;;;11.73;6.45;;;-3.00;99.90;;;;;;4973231;28;20046;-77
2022/12/08 01:00:58;;;;;;;10.45;6.00;;;-3.00;99.90;;;;;;4989872;28;20519;-77
2022/12/08 01:03:25;;;;;;;13.00;6.32;;;-3.10;99.90;;;;;;4998041;28;20054;-77
2022/12/08 01:05:53;;;;;;;11.95;5.68;;;-3.00;99.90;;;;;;5012186;28;20081;-77
2022/12/08 01:08:20;;;;;;;10.35;6.03;;;-3.00;99.90;;;;;;5013214;28;20061;-77
2022/12/08 01:10:48;;;;;;;13.35;6.05;;;-2.90;99.90;;;;;;4995256;28;20051;-76
2022/12/08 01:13:16;;;;;;;11.32;5.95;;;-2.90;99.90;;;;;;4974265;28;20574;-77
2022/12/08 01:15:44;;;;;;;10.77;6.07;;;-2.90;99.90;;;;;;4973025;28;20049;-77
2022/12/08 01:18:11;;;;;;;9.90;5.55;;;-2.90;99.90;;;;;;4973058;28;20055;-78
2022/12/08 01:20:39;;;;;;;13.30;6.57;;;-2.90;99.90;;;;;;4987310;28;20042;-77
2022/12/08 01:23:06;;;;;;;10.25;6.28;;;-2.90;99.90;;;;;;4992268;28;20051;-77
2022/12/08 01:25:35;;;;;;;12.25;6.38;;;-2.90;99.90;;;;;;5008531;28;20074;-77
2022/12/08 01:28:02;;;;;;;10.63;6.22;;;-2.90;99.90;;;;;;4992355;28;20522;-76
2022/12/08 01:30:32;;;;;;;11.55;7.13;;;-3.00;99.90;;;;;;4993711;28;20105;-78
2022/12/08 01:33:00;;;;;;;10.35;6.78;;;-3.00;99.90;;;;;;4993172;28;20054;-77
2022/12/08 01:35:27;;;;;;;10.82;5.82;;;-3.00;99.90;;;;;;4992333;28;20422;-76
2022/12/08 01:37:55;;;;;;;11.88;6.75;;;-2.90;99.90;;;;;;5000180;28;20049;-77
2022/12/08 01:40:25;;;;;;;9.57;6.10;;;-2.90;99.90;;;;;;4974431;28;20123;-77
2022/12/08 01:42:53;;;;;;;11.75;6.32;;;-2.90;99.90;;;;;;4973778;28;20051;-77
2022/12/08 01:45:25;;;;;;;10.13;6.40;;;-2.90;99.90;;;;;;4972950;28;20125;-77
2022/12/08 01:47:57;;;;;;;12.52;6.32;;;-2.80;99.90;;;;;;4988002;28;20137;-77
2022/12/08 01:50:27;;;;;;;11.95;6.07;;;-2.80;99.90;;;;;;4987396;28;20515;-78
2022/12/08 01:52:59;;;;;;;11.73;6.55;;;-2.90;99.90;;;;;;4977502;28;20053;-76
2022/12/08 01:55:33;;;;;;;12.15;6.07;;;-2.80;99.90;;;;;;4977787;28;20051;-77
2022/12/08 01:58:08;;;;;;;9.30;5.80;;;-2.80;99.90;;;;;;4977593;28;20051;-77
2022/12/08 02:00:35;;;;;;;12.85;6.20;;;-2.80;99.90;;;;;;4976513;28;20118;-76
2022/12/08 02:03:08;;;;;;;9.43;5.78;;;-2.80;99.90;;;;;;4976121;28;20074;-77
2022/12/08 02:05:39;;;;;;;14.18;6.72;;;-2.80;99.90;;;;;;4987918;28;20062;-76
2022/12/08 02:08:09;;;;;;;11.40;6.13;;;-2.80;99.90;;;;;;4973492;28;20055;-76
2022/12/08 02:10:40;;;;;;;14.07;7.57;;;-2.80;99.90;;;;;;4978793;28;20042;-75
2022/12/08 02:13:13;;;;;;;15.85;7.00;;;-2.80;99.90;;;;;;4992760;28;20054;-77
2022/12/08 02:16:00;;;;;;;9.30;5.93;;;-2.80;99.90;;;;;;4973262;28;20059;-77
2022/12/08 02:18:48;;;;;;;11.48;6.38;;;-2.70;99.90;;;;;;4973443;28;20055;-77
2022/12/08 02:21:23;;;;;;;12.50;6.45;;;-2.70;99.90;;;;;;4973343;28;20050;-79
2022/12/08 02:24:00;;;;;;;11.55;7.22;;;-2.80;99.90;;;;;;4961604;28;20493;-78
2022/12/08 02:27:24;;;;;;;19.23;6.97;;;-2.80;99.90;;;;;;4971924;28;20518;-78
2022/12/08 02:30:20;;;;;;;11.33;6.73;;;-2.70;99.90;;;;;;4973128;28;20057;-77
2022/12/08 02:33:30;;;;;;;14.30;6.10;;;-2.70;99.90;;;;;;4960266;28;20534;-76
2022/12/08 02:36:05;;;;;;;10.80;6.97;;;-2.70;99.90;;;;;;4971599;28;20088;-77
2022/12/08 02:38:47;;;;;;;9.82;7.35;;;-2.70;99.90;;;;;;4972960;28;20416;-77
2022/12/08 02:41:27;;;;;;;10.00;6.47;;;-2.70;99.90;;;;;;4970763;28;20047;-76
2022/12/08 02:44:02;;;;;;;13.65;7.50;;;-2.70;99.90;;;;;;4972794;28;20605;-77
2022/12/08 02:46:35;;;;;;;15.65;7.78;;;-2.70;99.90;;;;;;4971076;28;20499;-78
2022/12/08 02:49:04;;;;;;;13.68;7.68;;;-2.70;99.90;;;;;;4987114;28;20055;-76
2022/12/08 02:51:33;;;;;;;13.88;7.13;;;-2.60;99.90;;;;;;4970668;28;20128;-76
2022/12/08 02:54:02;;;;;;;12.57;6.88;;;-2.60;99.90;;;;;;4971376;28;20050;-77
2022/12/08 02:57:04;;;;;;;16.55;7.43;;;-2.60;99.90;;;;;;4972222;28;20042;-77
2022/12/08 02:59:50;;;;;;;12.32;7.07;;;-2.60;99.90;;;;;;4971953;28;20150;-76
2022/12/08 03:02:42;;;;;;;15.35;7.63;;;-2.70;99.90;;;;;;4972236;28;20051;-77
2022/12/08 03:05:24;;;;;;;12.38;7.22;;;-2.70;99.90;;;;;;5006963;28;20227;-76
2022/12/08 03:08:00;;;;;;;12.73;7.43;;;-2.60;99.90;;;;;;5004503;28;20094;-78
2022/12/08 03:10:34;;;;;;;16.60;7.88;;;-2.70;99.90;;;;;;4972673;28;20131;-77
2022/12/08 03:13:07;;;;;;;12.07;6.85;;;-2.60;99.90;;;;;;4972019;28;20054;-76
2022/12/08 03:15:37;;;;;;;22.88;8.48;;;-2.50;99.90;;;;;;4972255;28;20085;-76
2022/12/08 03:18:07;;;;;;;15.20;7.55;;;-2.60;99.90;;;;;;4971494;28;20074;-77
2022/12/08 03:20:35;;;;;;;12.40;8.20;;;-2.60;99.90;;;;;;4972508;28;20059;-77
2022/12/08 03:23:09;;;;;;;15.00;7.85;;;-2.50;99.90;;;;;;4971935;28;20149;-76
2022/12/08 03:25:43;;;;;;;13.40;8.05;;;-2.50;99.90;;;;;;4953930;28;20506;-74
2022/12/08 03:28:11;;;;;;;14.07;7.68;;;-2.50;99.90;;;;;;4971917;28;20058;-75
2022/12/08 03:30:41;;;;;;;11.93;7.10;;;-2.50;99.90;;;;;;4971794;28;20057;-76
2022/12/08 03:33:16;;;;;;;14.15;7.20;;;-2.50;99.90;;;;;;4971832;28;20078;-76
2022/12/08 03:35:45;;;;;;;12.25;7.00;;;-2.50;99.90;;;;;;4983878;28;20057;-77
2022/12/08 03:38:17;;;;;;;13.10;7.32;;;-2.50;99.90;;;;;;5011097;28;20052;-75
2022/12/08 03:41:17;;;;;;;13.02;7.75;;;-2.50;99.90;;;;;;5010926;28;20049;-77
2022/12/08 03:43:34;;;;;;;13.15;7.28;;;-2.50;99.90;;;;;;5011265;28;20050;-77
2022/12/08 03:46:02;;;;;;;14.15;7.60;;;-2.50;99.90;;;;;;4989538;28;20058;-77
2022/12/08 03:48:30;;;;;;;12.45;8.23;;;-2.50;99.90;;;;;;5005717;28;20049;-77
2022/12/08 03:50:57;;;;;;;12.90;7.43;;;-2.40;99.90;;;;;;4989045;28;20047;-76
2022/12/08 03:53:26;;;;;;;14.15;7.80;;;-2.40;99.90;;;;;;4978801;28;20101;-77
2022/12/08 03:55:55;;;;;;;12.55;8.02;;;-2.40;99.90;;;;;;4988065;28;20054;-77
2022/12/08 03:58:22;;;;;;;13.20;7.60;;;-2.50;99.90;;;;;;4991318;28;20137;-78
2022/12/08 04:00:50;;;;;;;15.23;7.85;;;-2.50;99.90;;;;;;4990757;28;20488;-76
2022/12/08 04:03:18;;;;;;;12.80;7.43;;;-2.60;99.90;;;;;;4981219;28;20153;-77
2022/12/08 04:05:45;;;;;;;12.23;6.85;;;-2.60;99.90;;;;;;4978817;28;20043;-70
2022/12/08 04:08:12;;;;;;;13.68;7.93;;;-2.60;99.90;;;;;;4987909;28;20038;-77
2022/12/08 04:10:42;;;;;;;14.23;7.22;;;-2.60;99.90;;;;;;4977015;28;20066;-71
2022/12/08 04:13:09;;;;;;;13.32;7.45;;;-2.60;99.90;;;;;;4970186;28;20507;-69
2022/12/08 04:15:37;;;;;;;19.98;8.50;;;-2.60;99.90;;;;;;4986332;28;20149;-71
2022/12/08 04:18:04;;;;;;;13.57;7.88;;;-2.60;99.90;;;;;;4998717;28;20050;-69
2022/12/08 04:20:32;;;;;;;16.42;7.93;;;-2.60;99.90;;;;;;4998501;28;20113;-69
2022/12/08 04:22:59;;;;;;;14.85;7.07;;;-2.60;99.90;;;;;;4975110;28;20066;-69
2022/12/08 04:25:27;;;;;;;15.70;8.10;;;-2.60;99.90;;;;;;4984120;28;20046;-69
2022/12/08 04:27:56;;;;;;;14.38;7.88;;;-2.60;99.90;;;;;;4976590;28;20404;-69
2022/12/08 04:30:23;;;;;;;14.90;7.05;;;-2.60;99.90;;;;;;4982095;28;20055;-70
2022/12/08 04:32:50;;;;;;;13.93;7.40;;;-2.60;99.90;;;;;;4980430;28;20054;-71
2022/12/08 04:35:18;;;;;;;14.63;7.65;;;-2.70;99.90;;;;;;4994512;28;20054;-69
2022/12/08 04:37:45;;;;;;;13.25;7.03;;;-2.60;99.90;;;;;;4994032;28;20058;-71
2022/12/08 04:40:14;;;;;;;14.77;7.60;;;-2.60;99.90;;;;;;4992796;28;20109;-69
2022/12/08 04:42:42;;;;;;;14.63;7.82;;;-2.60;99.90;;;;;;4984549;28;20054;-70
2022/12/08 04:45:11;;;;;;;13.57;7.38;;;-2.60;99.90;;;;;;4987735;28;20133;-70
2022/12/08 04:47:39;;;;;;;16.00;9.27;;;-2.60;99.90;;;;;;4990734;28;20058;-71
2022/12/08 04:50:08;;;;;;;14.27;7.05;;;-2.60;99.90;;;;;;4987531;28;20043;-75
2022/12/08 04:52:36;;;;;;;16.95;7.68;;;-2.60;99.90;;;;;;4999440;28;20074;-74
2022/12/08 04:55:04;;;;;;;11.57;6.97;;;-2.60;99.90;;;;;;4992186;28;20035;-75
2022/12/08 04:57:32;;;;;;;16.15;7.43;;;-2.70;99.90;;;;;;4989117;28;20065;-75
2022/12/08 04:59:59;;;;;;;16.63;7.15;;;-2.60;99.90;;;;;;4969941;28;20041;-74
2022/12/08 05:02:28;;;;;;;12.73;7.88;;;-2.70;99.90;;;;;;5006173;28;20053;-76
2022/12/08 05:04:55;;;;;;;12.60;8.27;;;-2.60;99.90;;;;;;4996908;28;20109;-76
2022/12/08 05:07:23;;;;;;;12.60;6.88;;;-2.60;99.90;;;;;;4988363;28;20049;-73
2022/12/08 05:09:51;;;;;;;13.63;7.65;;;-2.70;99.90;;;;;;5010211;28;20124;-74
2022/12/08 05:12:18;;;;;;;13.50;7.78;;;-2.70;99.90;;;;;;5028367;28;20561;-76
2022/12/08 05:14:47;;;;;;;16.55;7.20;;;-2.60;99.90;;;;;;5001936;28;20393;-76
2022/12/08 05:17:15;;;;;;;12.52;7.45;;;-2.60;99.90;;;;;;4974106;28;20058;-71
2022/12/08 05:19:44;;;;;;;12.50;7.10;;;-2.60;99.90;;;;;;4974159;28;20047;-71
2022/12/08 05:22:12;;;;;;;13.05;8.35;;;-2.60;99.90;;;;;;4971984;28;20186;-70
2022/12/08 05:24:39;;;;;;;12.55;7.53;;;-2.70;99.90;;;;;;4987190;28;20141;-72
2022/12/08 05:27:07;;;;;;;13.75;7.63;;;-2.70;99.90;;;;;;4982034;28;20038;-71
2022/12/08 05:29:34;;;;;;;11.98;7.53;;;-2.70;99.90;;;;;;4989907;28;20138;-70
2022/12/08 05:32:02;;;;;;;11.82;7.05;;;-2.70;99.90;;;;;;4990897;28;20054;-69
2022/12/08 05:34:29;;;;;;;13.48;8.20;;;-2.70;99.90;;;;;;5005265;28;20049;-69
2022/12/08 05:36:58;;;;;;;18.23;8.18;;;-2.70;99.90;;;;;;4992586;28;20050;-71
2022/12/08 05:39:25;;;;;;;18.05;7.22;;;-2.70;99.90;;;;;;4993117;28;20068;-71
2022/12/08 05:41:53;;;;;;;15.77;8.65;;;-2.70;99.90;;;;;;4990561;28;20042;-71
2022/12/08 05:44:20;;;;;;;18.80;8.60;;;-2.80;99.90;;;;;;5007988;28;20057;-70
2022/12/08 05:46:48;;;;;;;13.98;8.43;;;-2.80;99.90;;;;;;4988410;28;20085;-70
2022/12/08 05:49:15;;;;;;;18.15;8.00;;;-2.90;99.90;;;;;;4980173;28;20372;-71
2022/12/08 05:51:43;;;;;;;11.73;7.55;;;-2.90;99.90;;;;;;4982168;28;20475;-69
2022/12/08 05:54:11;;;;;;;13.55;8.63;;;-2.90;99.90;;;;;;4977961;28;20412;-68
2022/12/08 05:56:39;;;;;;;14.85;7.65;;;-2.90;99.90;;;;;;4991252;28;20064;-70
2022/12/08 05:59:06;;;;;;;12.88;7.72;;;-2.90;99.90;;;;;;4979886;28;20054;-68
2022/12/08 06:01:34;;;;;;;13.50;7.63;;;-2.90;99.90;;;;;;4972930;28;20085;-71
2022/12/08 06:04:04;;;;;;;16.10;8.57;;;-2.90;99.90;;;;;;4979988;28;20088;-69
2022/12/08 06:06:35;;;;;;;14.68;7.90;;;-2.90;99.90;;;;;;4992556;28;20038;-69
2022/12/08 06:09:03;;;;;;;12.23;7.93;;;-2.90;99.90;;;;;;4992170;28;20058;-70
2022/12/08 06:11:33;;;;;;;13.40;7.28;;;-2.90;99.90;;;;;;4991842;28;20062;-69
2022/12/08 06:14:03;;;;;;;14.98;7.68;;;-2.80;99.90;;;;;;4992597;28;20046;-70
2022/12/08 06:16:31;;;;;;;13.90;8.48;;;-2.90;99.90;;;;;;4987540;28;20046;-70
2022/12/08 06:18:58;;;;;;;14.10;8.25;;;-2.90;99.90;;;;;;4981711;28;20113;-70
2022/12/08 06:21:25;;;;;;;13.57;8.30;;;-2.90;99.90;;;;;;4991906;28;20047;-69
2022/12/08 06:23:54;;;;;;;15.98;9.20;;;-2.90;99.90;;;;;;4990442;28;20688;-71
2022/12/08 06:26:22;;;;;;;16.08;8.95;;;-2.90;99.90;;;;;;4992039;28;20053;-71
2022/12/08 06:28:51;;;;;;;18.58;7.50;;;-2.90;99.90;;;;;;4991916;28;20058;-70
2022/12/08 06:31:21;;;;;;;11.30;7.13;;;-2.90;99.90;;;;;;4991619;28;20066;-69
2022/12/08 06:33:49;;;;;;;14.48;8.68;;;-2.90;99.90;;;;;;4991811;28;20568;-69
2022/12/08 06:36:19;;;;;;;15.23;8.48;;;-2.90;99.90;;;;;;4989835;28;20074;-70
2022/12/08 06:38:47;;;;;;;15.20;8.68;;;-3.00;99.90;;;;;;4972769;28;20046;-70
2022/12/08 06:41:14;;;;;;;15.95;8.40;;;-2.90;99.90;;;;;;4972282;28;20085;-70
2022/12/08 06:43:43;;;;;;;13.75;8.77;;;-3.00;99.90;;;;;;4972025;28;20105;-69
2022/12/08 06:46:14;;;;;;;16.92;9.07;;;-3.00;99.90;;;;;;4988214;28;20043;-70
2022/12/08 06:48:42;;;;;;;15.40;8.48;;;-2.90;99.90;;;;;;4982974;28;20051;-70
2022/12/08 06:51:15;;;;;;;15.50;8.27;;;-2.90;99.90;;;;;;4971867;28;20054;-71
2022/12/08 06:53:44;;;;;;;14.93;8.00;;;-2.90;99.90;;;;;;4972143;28;20415;-71
2022/12/08 06:56:13;;;;;;;16.00;8.18;;;-2.90;99.90;;;;;;4981701;28;20145;-71
2022/12/08 06:58:40;;;;;;;12.18;7.53;;;-2.90;99.90;;;;;;4991361;28;20129;-71
2022/12/08 07:01:12;;;;;;;14.13;8.73;;;-2.90;99.90;;;;;;4991132;28;20182;-72
2022/12/08 07:03:42;;;;;;;13.18;8.30;;;-2.90;99.90;;;;;;4991463;28;20458;-70
2022/12/08 07:06:15;;;;;;;11.10;7.88;;;-2.80;99.90;;;;;;4990012;28;20503;-69
2022/12/08 07:08:43;;;;;;;20.77;9.93;;;-2.80;99.90;;;;;;4990059;28;20145;-70
2022/12/08 07:11:12;;;;;;;13.68;8.40;;;-2.80;99.90;;;;;;4989649;28;20536;-69
2022/12/08 07:13:41;;;;;;;16.60;8.98;;;-2.80;99.90;;;;;;4991317;28;20050;-69
2022/12/08 07:16:13;;;;;;;17.38;9.25;;;-2.80;99.90;;;;;;4991453;28;20418;-71
2022/12/08 07:18:42;;;;;;;18.67;9.57;;;-2.80;99.90;;;;;;4991352;28;20054;-70
2022/12/08 07:21:33;;;;;;;19.23;8.60;;;-2.80;99.90;;;;;;4983265;28;20057;-70
2022/12/08 07:24:01;;;;;;;15.57;8.50;;;-2.80;99.90;;;;;;4991159;28;20054;-69
2022/12/08 07:26:28;;;;;;;14.52;8.50;;;-2.80;99.90;;;;;;4991138;28;20116;-69
2022/12/08 07:28:56;;;;;;;12.10;6.60;;;-2.70;99.90;;;;;;4991037;28;20129;-70
2022/12/08 07:31:27;;;;;;;16.90;8.65;;;-2.80;99.90;;;;;;4990776;28;20050;-70
2022/12/08 07:33:55;;;;;;;16.55;8.52;;;-2.80;99.90;;;;;;5006054;28;20042;-70
2022/12/08 07:36:23;;;;;;;18.70;8.13;;;-2.80;99.90;;;;;;4991118;28;20050;-71
2022/12/08 07:38:53;;;;;;;12.75;7.90;;;-2.80;99.90;;;;;;4990944;28;20047;-69
2022/12/08 07:41:23;;;;;;;14.15;7.65;;;-2.80;99.90;;;;;;4971384;28;20050;-71
2022/12/08 07:43:52;;;;;;;14.57;7.75;;;-2.80;99.90;;;;;;4971451;28;20057;-69
2022/12/08 07:46:22;;;;;;;17.45;8.10;;;-2.80;99.90;;;;;;4971570;28;20085;-70
2022/12/08 07:48:52;;;;;;;16.13;8.43;;;-2.90;99.90;;;;;;4978518;28;20050;-69
2022/12/08 07:51:20;;;;;;;18.75;8.00;;;-2.80;99.90;;;;;;5003678;28;20050;-69
2022/12/08 07:53:50;;;;;;;14.48;8.70;;;-2.80;99.90;;;;;;4991549;28;20129;-69
2022/12/08 07:56:18;;;;;;;14.70;8.27;;;-2.80;99.90;;;;;;4986461;28;20047;-70
2022/12/08 07:58:46;;;;;;;14.00;8.25;;;-2.80;99.90;;;;;;4974118;28;20138;-69
2022/12/08 08:01:23;;;;;;;14.00;7.80;;;-2.80;99.90;;;;;;4975671;28;20054;-76
2022/12/08 08:03:52;;;;;;;12.88;7.90;;;-2.80;99.90;;;;;;4975847;28;20141;-75
2022/12/08 08:06:20;;;;;;;14.35;6.97;;;-2.80;99.90;;;;;;4973662;28;20050;-75
2022/12/08 08:08:48;;;;;;;15.02;8.43;;;-2.70;99.90;;;;;;4990560;28;20138;-75
2022/12/08 08:11:15;;;;;;;16.67;8.30;;;-2.60;99.90;;;;;;4957848;28;20051;-76
2022/12/08 08:13:43;;;;;;;15.00;8.15;;;-2.60;99.90;;;;;;4980992;28;20057;-77
2022/12/08 08:16:12;;;;;;;14.68;6.78;;;-2.40;99.90;;;;;;4978528;28;20053;-76
2022/12/08 08:18:40;;;;;;;18.92;7.43;;;-2.40;99.90;;;;;;4990505;28;20562;-75
2022/12/08 08:21:10;;;;;;;15.70;8.18;;;-2.30;99.90;;;;;;4985766;28;20580;-76
2022/12/08 08:23:37;;;;;;;15.52;8.07;;;-2.30;99.90;;;;;;4976127;28;20061;-75
2022/12/08 08:26:05;;;;;;;11.20;7.40;;;-2.20;99.90;;;;;;4975049;28;20047;-70
2022/12/08 08:28:33;;;;;;;13.75;7.55;;;-2.30;99.90;;;;;;4975184;28;20448;-69
2022/12/08 08:31:01;;;;;;;14.75;8.32;;;-2.30;99.90;;;;;;4986271;28;20496;-69
2022/12/08 08:33:29;;;;;;;12.25;7.22;;;-2.40;99.90;;;;;;4985383;28;20534;-70
2022/12/08 08:35:56;;;;;;;15.63;8.27;;;-2.50;99.90;;;;;;4979292;28;20116;-70
2022/12/08 08:38:25;;;;;;;14.48;7.88;;;-2.50;99.90;;;;;;4994214;28;20081;-70
2022/12/08 08:40:52;;;;;;;12.88;7.57;;;-2.60;99.90;;;;;;4993507;28;20038;-70
2022/12/08 08:43:29;;;;;;;11.07;6.95;;;-2.60;99.90;;;;;;4992692;28;20137;-70
2022/12/08 08:45:58;;;;;;;12.25;7.25;;;-2.60;99.90;;;;;;4986960;28;20072;-70
2022/12/08 08:48:26;;;;;;;14.80;5.90;;;-2.60;99.90;;;;;;4976951;28;20050;-71
2022/12/08 08:50:54;;;;;;;14.25;7.85;;;-2.60;99.90;;;;;;4985525;28;20054;-71
2022/12/08 08:53:22;;;;;;;15.02;7.57;;;-2.60;99.90;;;;;;4993119;28;20586;-69
2022/12/08 08:55:51;;;;;;;13.93;8.23;;;-2.50;99.90;;;;;;5005000;28;20585;-69
2022/12/08 08:58:19;;;;;;;14.70;7.22;;;-2.50;99.90;;;;;;4993697;28;20195;-73
2022/12/08 09:00:47;;;;;;;15.23;7.28;;;-2.50;99.90;;;;;;4986602;28;20057;-71
2022/12/08 09:03:14;;;;;;;18.05;8.35;;;-2.50;99.90;;;;;;4983741;28;20046;-69
2022/12/08 09:05:43;;;;;;;15.63;8.07;;;-2.50;99.90;;;;;;4988474;28;20050;-71
2022/12/08 09:08:10;;;;;;;15.07;8.02;;;-2.50;99.90;;;;;;4989988;28;20073;-71
2022/12/08 09:10:38;;;;;;;15.27;7.65;;;-2.50;99.90;;;;;;4990369;28;20515;-70
2022/12/08 09:13:07;;;;;;;13.52;7.32;;;-2.40;99.90;;;;;;4992078;28;20069;-69
2022/12/08 09:15:35;;;;;;;15.73;8.82;;;-2.50;99.90;;;;;;4990006;28;20137;-71
2022/12/08 09:18:05;;;;;;;16.73;8.52;;;-2.50;99.90;;;;;;4987627;28;20054;-70
2022/12/08 09:20:33;;;;;;;11.43;7.25;;;-2.50;99.90;;;;;;4988832;28;20062;-69
2022/12/08 09:23:00;;;;;;;14.20;8.07;;;-2.50;99.90;;;;;;4993642;28;20074;-70
2022/12/08 09:25:28;;;;;;;14.85;7.47;;;-2.50;99.90;;;;;;4987537;28;20051;-70
2022/12/08 09:27:56;;;;;;;11.90;7.05;;;-2.40;99.90;;;;;;4989714;28;20415;-71
2022/12/08 09:30:25;;;;;;;13.82;8.18;;;-2.40;99.90;;;;;;4957388;28;20057;-71
2022/12/08 09:32:53;;;;;;;12.57;8.10;;;-2.50;99.90;;;;;;4986412;28;20061;-70
2022/12/08 09:35:21;;;;;;;11.80;7.25;;;-2.50;99.90;;;;;;4988203;28;20042;-70
2022/12/08 09:37:48;;;;;;;13.60;7.05;;;-2.40;99.90;;;;;;4987916;28;20104;-70
2022/12/08 09:40:19;;;;;;;15.73;8.50;;;-2.40;99.90;;;;;;4987901;28;20054;-72
2022/12/08 09:42:54;;;;;;;13.05;7.22;;;-2.50;99.90;;;;;;4987440;28;20048;-71
2022/12/08 09:45:26;;;;;;;12.90;8.13;;;-2.50;99.90;;;;;;4988155;28;20054;-69
2022/12/08 09:48:05;;;;;;;14.00;8.23;;;-2.50;99.90;;;;;;5002617;28;20511;-70
2022/12/08 09:50:37;;;;;;;15.50;8.40;;;-2.40;99.90;;;;;;4986758;28;20426;-68
2022/12/08 09:53:13;;;;;;;14.38;8.40;;;-2.40;99.90;;;;;;5003206;28;20062;-71
2022/12/08 09:55:45;;;;;;;15.48;8.50;;;-2.50;99.90;;;;;;4986607;28;20042;-70
2022/12/08 09:58:21;;;;;;;16.13;7.55;;;-2.50;99.90;;;;;;4987146;28;20042;-71
2022/12/08 10:00:50;;;;;;;13.35;7.25;;;-2.40;99.90;;;;;;4987711;28;20321;-69
2022/12/08 10:03:18;;;;;;;16.67;8.07;;;-2.50;99.90;;;;;;4987691;28;20042;-69
2022/12/08 10:05:54;;;;;;;13.82;7.93;;;-2.50;99.90;;;;;;4987290;28;20047;-71
2022/12/08 10:08:30;;;;;;;13.43;7.80;;;-2.40;99.90;;;;;;5001967;28;20050;-70
2022/12/08 10:11:05;;;;;;;17.52;8.80;;;-2.30;99.90;;;;;;4987098;28;20054;-71
2022/12/08 10:13:40;;;;;;;21.27;10.45;;;-2.30;99.90;;;;;;4987747;28;20527;-70
2022/12/08 10:16:20;;;;;;;16.17;7.88;;;-2.30;99.90;;;;;;4987876;28;20065;-75
2022/12/08 10:18:56;;;;;;;16.02;8.70;;;-2.40;99.90;;;;;;4991036;28;20068;-74
2022/12/08 10:21:29;;;;;;;16.23;8.88;;;-2.40;99.90;;;;;;4986714;28;20046;-75
2022/12/08 10:24:05;;;;;;;16.05;8.13;;;-2.40;99.90;;;;;;5004505;28;20437;-76
2022/12/08 10:26:32;;;;;;;18.27;9.35;;;-2.40;99.90;;;;;;4986490;28;20116;-76
2022/12/08 10:29:02;;;;;;;14.52;8.32;;;-2.40;99.90;;;;;;4986870;28;20418;-75
2022/12/08 10:31:31;;;;;;;15.73;8.15;;;-2.30;99.90;;;;;;4987292;28;20050;-77
2022/12/08 10:34:04;;;;;;;14.77;8.05;;;-2.30;99.90;;;;;;4987421;28;20048;-75
2022/12/08 10:36:53;;;;;;;14.25;8.60;;;-2.30;99.90;;;;;;4987515;28;20173;-75
2022/12/08 10:39:36;;;;;;;12.77;7.55;;;-2.40;99.90;;;;;;4987046;28;20050;-76
2022/12/08 10:42:19;;;;;;;;;;;-2.40;99.90;;;;;;4987352;28;20053;-76
2022/12/08 10:44:59;;;;;;;14.90;7.65;;;-2.40;99.90;;;;;;4987521;28;19930;-77
2022/12/08 10:47:30;;;;;;;15.98;8.18;;;-2.40;99.90;;;;;;4984295;28;20057;-77
2022/12/08 10:50:19;;;;;;;12.00;7.13;;;-2.30;99.90;;;;;;4985575;28;20053;-76
2022/12/08 10:52:54;;;;;;;14.48;7.40;;;-2.40;99.90;;;;;;4984665;28;20089;-75
2022/12/08 10:55:23;;;;;;;14.95;7.90;;;-2.40;99.90;;;;;;4988039;28;20490;-76
2022/12/08 10:57:51;;;;;;;16.60;8.50;;;-2.40;99.90;;;;;;4987005;28;20458;-77
2022/12/08 11:00:24;;;;;;;14.77;7.47;;;-2.40;99.90;;;;;;4985901;28;20537;-76
2022/12/08 11:02:59;;;;;;;13.60;7.85;;;-2.30;99.90;;;;;;4987597;28;20054;-75
2022/12/08 11:05:33;;;;;;;13.75;7.15;;;-2.30;99.90;;;;;;4987578;28;20483;-76
2022/12/08 11:08:01;;;;;;;18.13;9.27;;;-2.20;99.90;;;;;;4982553;28;20502;-74
2022/12/08 11:10:36;;;;;;;16.58;7.75;;;-2.30;99.90;;;;;;4986217;28;20145;-76
2022/12/08 11:13:07;;;;;;;13.45;7.95;;;-2.30;99.90;;;;;;4986474;28;20105;-77
2022/12/08 11:15:40;;;;;;;14.77;7.72;;;-2.30;99.90;;;;;;5001184;28;20566;-77
2022/12/08 11:18:25;;;;;;;15.00;7.75;;;-2.20;99.90;;;;;;4984413;28;20046;-75
2022/12/08 11:21:03;;;;;;;13.32;7.53;;;-2.30;99.90;;;;;;5001594;28;20481;-75
2022/12/08 11:23:31;;;;;;;14.73;7.90;;;-2.30;99.90;;;;;;4986071;28;20069;-74
2022/12/08 11:26:06;;;;;;;14.05;7.28;;;-2.30;99.90;;;;;;4984892;28;20049;-74
2022/12/08 11:28:35;;;;;;;14.18;7.68;;;-2.30;99.90;;;;;;4986316;28;20100;-75
2022/12/08 11:31:26;;;;;;;14.23;8.00;;;-2.30;99.90;;;;;;4986905;28;20137;-74
2022/12/08 11:33:57;;;;;;;13.52;7.07;;;-2.30;99.90;;;;;;4988518;28;20053;-76
2022/12/08 11:36:29;;;;;;;13.30;7.82;;;-2.40;99.90;;;;;;4990069;28;20097;-76
2022/12/08 11:38:59;;;;;;;12.80;7.35;;;-2.40;99.90;;;;;;4990271;28;20054;-74
2022/12/08 11:41:31;;;;;;;11.18;7.05;;;-2.40;99.90;;;;;;4991276;28;20109;-75
2022/12/08 11:44:06;;;;;;;14.57;8.27;;;-2.40;99.90;;;;;;4989985;28;20054;-73
2022/12/08 11:46:43;;;;;;;16.23;8.05;;;-2.40;99.90;;;;;;4992939;28;20069;-74
2022/12/08 11:49:14;;;;;;;19.60;8.80;;;-2.40;99.90;;;;;;4992463;28;20137;-74
2022/12/08 11:51:51;;;;;;;14.98;8.05;;;-2.40;99.90;;;;;;4994827;28;20502;-73
2022/12/08 11:54:27;;;;;;;15.85;8.75;;;-2.40;99.90;;;;;;4994610;28;20054;-75
2022/12/08 11:57:00;;;;;;;17.92;7.75;;;-2.40;99.90;;;;;;4994212;28;20090;-75
2022/12/08 11:59:32;;;;;;;13.57;7.43;;;-2.40;99.90;;;;;;4994911;28;20057;-74
2022/12/08 12:02:02;;;;;;;13.65;7.80;;;-2.40;99.90;;;;;;4994778;28;20046;-75
2022/12/08 12:04:36;;;;;;;17.65;8.35;;;-2.40;99.90;;;;;;4992595;28;20054;-73
2022/12/08 12:07:36;;;;;;;12.98;7.45;;;-2.40;99.90;;;;;;4994682;28;20050;-74
2022/12/08 12:10:40;;;;;;;17.02;7.97;;;-2.50;99.90;;;;;;4994078;28;20468;-74
2022/12/08 12:13:44;;;;;;;14.80;7.60;;;-2.50;99.90;;;;;;4994180;28;20050;-75
2022/12/08 12:16:48;;;;;;;13.73;7.63;;;-2.50;99.90;;;;;;4994157;28;20140;-73
2022/12/08 12:19:19;;;;;;;13.25;7.97;;;-2.50;99.90;;;;;;4977275;28;20077;-73
2022/12/08 12:21:57;;;;;;;15.25;8.00;;;-2.50;99.90;;;;;;4975078;28;20054;-73
2022/12/08 12:24:36;;;;;;;15.70;7.70;;;-2.60;99.90;;;;;;4976374;28;20050;-74
2022/12/08 12:27:21;;;;;;;15.40;8.00;;;-2.60;99.90;;;;;;4988548;28;20054;-73
2022/12/08 12:29:57;;;;;;;16.88;8.13;;;-2.60;99.90;;;;;;4977847;28;20050;-68
2022/12/08 12:32:48;;;;;;;14.90;7.32;;;-2.60;99.90;;;;;;5001847;28;20054;-71
2022/12/08 12:35:33;;;;;;;14.88;7.80;;;-2.60;99.90;;;;;;5008863;28;20050;-68
2022/12/08 12:41:23;;;;;;;13.77;7.32;;;-2.60;99.90;;;;;;4974994;28;20050;-71
2022/12/08 12:44:44;;;;;;;12.63;6.47;;;-2.60;99.90;;;;;;4986358;28;20106;-74
2022/12/08 12:47:51;;;;;;;17.27;8.40;;;-2.60;99.90;;;;;;4907763;29;20481;-70
2022/12/08 12:50:47;;;;;;;15.00;7.93;;;-2.70;99.90;;;;;;4972289;28;20055;-71
2022/12/08 12:53:54;;;;;;;15.23;7.55;;;-2.70;99.90;;;;;;4972426;28;20161;-70
2022/12/08 12:56:49;;;;;;;11.20;7.60;;;-2.60;99.90;;;;;;4979546;28;20093;-70
2022/12/08 13:00:17;;;;;;;17.10;7.72;;;-2.60;99.90;;;;;;4994906;28;20145;-69
2022/12/08 13:02:55;;;;;;;13.88;7.53;;;-2.70;99.90;;;;;;4944379;28;20159;-69
2022/12/08 13:05:26;;;;;;;14.63;6.63;;;-2.70;99.90;;;;;;4973401;28;20114;-70
2022/12/08 13:07:56;;;;;;;13.10;7.45;;;-2.70;99.90;;;;;;4971611;28;20137;-76
2022/12/08 13:10:29;;;;;;;15.43;8.10;;;-2.70;99.90;;;;;;4980747;28;20153;-75
2022/12/08 13:13:16;;;;;;;;;;;-2.60;99.90;;;;;;4989999;28;20054;-75